Time;durP1;ratioP1;P1;durP2;ratioP2;P2;SDS_P1;SDS_P2;PMS_P1;PMS_P2;Temp;Humidity;BMP_temperature;BMP_pressure;BME280_temperature;BME280_humidity;BME280_pressure;Samples;Min_cycle;Max_cycle;Signal;HPM_P1;HPM_P2
2023/02/11 00:01:43;;;;;;;36.27;20.70;;;;;;;-1.96;100.00;100221.44;5034284;28;20216;-86
2023/02/11 00:04:10;;;;;;;40.30;22.40;;;;;;;-1.92;100.00;100220.59;5033868;28;20670;-86
2023/02/11 00:06:36;;;;;;;34.50;21.20;;;;;;;-1.92;100.00;100215.41;5034087;28;20216;-86
2023/02/11 00:09:03;;;;;;;34.63;21.47;;;;;;;-1.92;100.00;100216.31;5033702;28;20209;-86
2023/02/11 00:11:31;;;;;;;35.90;21.10;;;;;;;-1.86;100.00;100215.50;5033731;28;20240;-86
2023/02/11 00:13:59;;;;;;;35.60;19.53;;;;;;;-1.92;100.00;100215.41;5033913;28;20581;-86
2023/02/11 00:16:26;;;;;;;36.07;20.23;;;;;;;-2.00;100.00;100214.44;5033747;28;20219;-86
2023/02/11 00:18:53;;;;;;;36.20;19.97;;;;;;;-2.06;100.00;100216.97;5033405;28;20236;-86
2023/02/11 00:21:22;;;;;;;32.67;20.03;;;;;;;-2.06;100.00;100210.06;5032816;28;20332;-87
2023/02/11 00:23:48;;;;;;;38.13;22.17;;;;;;;-2.09;100.00;100211.75;5033736;28;20205;-86
2023/02/11 00:26:17;;;;;;;33.47;19.03;;;;;;;-2.10;100.00;100204.81;5033614;28;20215;-86
2023/02/11 00:28:46;;;;;;;36.77;20.07;;;;;;;-2.17;100.00;100202.97;5033569;28;20613;-86
2023/02/11 00:31:13;;;;;;;35.60;20.27;;;;;;;-2.21;100.00;100203.81;5033488;28;20237;-87
2023/02/11 00:33:40;;;;;;;40.13;22.30;;;;;;;-2.22;100.00;100199.47;5033674;28;20203;-86
2023/02/11 00:36:09;;;;;;;36.93;22.17;;;;;;;-2.18;100.00;100201.25;5033537;28;20204;-86
2023/02/11 00:38:36;;;;;;;37.27;21.30;;;;;;;-2.27;100.00;100207.16;5033642;28;20616;-86
2023/02/11 00:41:02;;;;;;;34.60;20.13;;;;;;;-2.31;100.00;100194.16;5033243;28;20229;-86
2023/02/11 00:43:29;;;;;;;37.23;21.63;;;;;;;-2.16;100.00;100204.72;5033583;28;20600;-86
2023/02/11 00:45:57;;;;;;;40.33;22.53;;;;;;;-2.20;100.00;100208.13;5033853;28;20220;-87
2023/02/11 00:48:23;;;;;;;39.93;21.30;;;;;;;-2.25;100.00;100205.50;5033776;28;20216;-89
2023/02/11 00:50:50;;;;;;;36.70;21.33;;;;;;;-2.30;100.00;100212.31;5035983;28;20229;-87
2023/02/11 00:53:16;;;;;;;39.87;22.90;;;;;;;-2.32;100.00;100221.75;5038029;28;20215;-87
2023/02/11 00:55:43;;;;;;;34.53;20.60;;;;;;;-2.35;100.00;100213.09;5037913;28;20212;-87
2023/02/11 00:58:09;;;;;;;36.93;20.80;;;;;;;-2.45;100.00;100201.72;5035088;28;20212;-87
2023/02/11 01:00:36;;;;;;;37.30;21.17;;;;;;;-2.49;100.00;100199.06;5033084;28;20224;-87
2023/02/11 01:03:04;;;;;;;36.93;20.63;;;;;;;-2.49;100.00;100206.84;5033038;28;20212;-87
2023/02/11 01:05:30;;;;;;;37.77;21.80;;;;;;;-2.50;100.00;100198.19;5032879;28;20678;-87
2023/02/11 01:07:57;;;;;;;39.67;21.77;;;;;;;-2.53;100.00;100186.91;5032830;28;20699;-87
2023/02/11 01:10:24;;;;;;;43.30;22.43;;;;;;;-2.57;100.00;100178.25;5032482;28;20239;-87
2023/02/11 01:12:51;;;;;;;39.37;23.17;;;;;;;-2.55;100.00;100173.09;5033085;28;20212;-87
2023/02/11 01:15:19;;;;;;;43.60;24.17;;;;;;;-2.57;100.00;100169.63;5032979;28;20602;-87
2023/02/11 01:17:46;;;;;;;38.67;22.27;;;;;;;-2.51;100.00;100169.72;5033252;28;20668;-87
2023/02/11 01:20:17;;;;;;;36.97;23.23;;;;;;;-2.46;100.00;100168.06;5032476;28;20239;-87
2023/02/11 01:22:43;;;;;;;40.40;22.07;;;;;;;-2.42;100.00;100164.66;5032508;28;20233;-88
2023/02/11 01:25:10;;;;;;;39.37;22.33;;;;;;;-2.36;100.00;100159.56;5032676;28;20212;-87
2023/02/11 01:27:37;;;;;;;41.30;22.63;;;;;;;-2.38;100.00;100163.84;5032415;28;20215;-87
2023/02/11 01:30:05;;;;;;;40.53;22.73;;;;;;;-2.43;100.00;100162.91;5032119;28;20228;-88
2023/02/11 01:32:32;;;;;;;37.97;21.50;;;;;;;-2.45;100.00;100156.84;5032127;28;20215;-87
2023/02/11 01:34:58;;;;;;;40.77;22.90;;;;;;;-2.45;100.00;100149.09;5032293;28;20212;-87
2023/02/11 01:37:26;;;;;;;39.53;22.60;;;;;;;-2.48;100.00;100155.09;5032128;28;20310;-87
2023/02/11 01:39:53;;;;;;;41.57;22.47;;;;;;;-2.49;100.00;100160.25;5031992;28;20247;-87
2023/02/11 01:42:21;;;;;;;38.37;22.10;;;;;;;-2.47;100.00;100153.34;5031989;28;20797;-87
2023/02/11 01:44:51;;;;;;;39.60;20.77;;;;;;;-2.50;100.00;100151.59;5032185;28;20216;-87
2023/02/11 01:47:18;;;;;;;35.10;20.70;;;;;;;-2.52;100.00;100153.28;5032050;28;20246;-87
2023/02/11 01:49:49;;;;;;;38.30;21.73;;;;;;;-2.52;100.00;100162.81;5031526;28;20235;-87
2023/02/11 01:52:21;;;;;;;38.43;21.47;;;;;;;-2.52;100.00;100152.44;5032135;28;20212;-87
2023/02/11 01:57:39;;;;;;;38.93;22.17;;;;;;;-2.45;100.00;100154.28;5032161;28;20624;-87
2023/02/11 02:00:11;;;;;;;40.47;22.10;;;;;;;-2.39;100.00;100159.53;5032080;28;20232;-86
2023/02/11 02:02:44;;;;;;;36.70;21.37;;;;;;;-2.35;100.00;100148.34;5033155;28;20303;-83
2023/02/11 02:05:19;;;;;;;37.47;21.40;;;;;;;-2.38;100.00;100148.31;5036162;28;20196;-85
2023/02/11 02:07:54;;;;;;;38.03;21.13;;;;;;;-2.35;100.00;100135.41;5033119;28;20584;-85
2023/02/11 02:10:25;;;;;;;37.77;22.10;;;;;;;-2.31;100.00;100132.00;5031952;28;20238;-86
2023/02/11 02:12:52;;;;;;;42.17;22.70;;;;;;;-2.20;100.00;100140.81;5032453;28;20216;-87
2023/02/11 02:15:26;;;;;;;38.47;21.77;;;;;;;-2.08;100.00;100141.81;5031657;28;20214;-87
2023/02/11 02:18:21;;;;;;;35.47;21.90;;;;;;;-1.96;100.00;100133.34;5031758;28;20210;-86
2023/02/11 02:21:31;;;;;;;34.77;20.53;;;;;;;-1.91;100.00;100134.25;5031187;28;20262;-86
2023/02/11 02:24:27;;;;;;;37.47;21.40;;;;;;;-1.82;100.00;100124.00;5031701;28;20223;-83
2023/02/11 02:27:19;;;;;;;35.50;20.50;;;;;;;-1.83;100.00;100123.09;5032007;28;20215;-84
2023/02/11 02:30:15;;;;;;;37.10;21.50;;;;;;;-1.80;100.00;100127.47;5031178;28;20234;-83
2023/02/11 02:33:00;;;;;;;34.70;21.57;;;;;;;-1.69;100.00;100123.25;5031536;28;20215;-83
2023/02/11 02:35:34;;;;;;;33.83;20.20;;;;;;;-1.71;100.00;100112.88;5031231;28;20215;-83
2023/02/11 02:38:07;;;;;;;37.07;22.00;;;;;;;-1.62;100.00;100107.78;5031636;28;20219;-83
2023/02/11 02:40:40;;;;;;;33.20;19.57;;;;;;;-1.69;100.00;100110.31;5031180;28;20325;-83
2023/02/11 02:43:09;;;;;;;33.57;20.70;;;;;;;-1.71;100.00;100099.06;5032663;28;20627;-83
2023/02/11 02:45:36;;;;;;;34.13;20.70;;;;;;;-1.74;100.00;100086.06;5038121;28;20215;-83
2023/02/11 02:48:04;;;;;;;34.93;21.00;;;;;;;-1.79;100.00;100077.38;5038114;28;20211;-83
2023/02/11 02:50:34;;;;;;;37.07;21.63;;;;;;;-1.82;100.00;100072.16;5038076;28;20233;-83
2023/02/11 02:53:15;;;;;;;40.93;21.90;;;;;;;-1.78;100.00;100077.38;5037973;28;20212;-83
2023/02/11 02:55:52;;;;;;;36.57;21.10;;;;;;;-1.83;100.00;100080.78;5038362;28;20193;-83
2023/02/11 02:58:37;;;;;;;35.87;22.93;;;;;;;-1.88;100.00;100085.06;5038090;28;20250;-82
2023/02/11 03:01:13;;;;;;;36.30;22.63;;;;;;;-1.96;100.00;100086.69;5051053;28;20239;-83
2023/02/11 03:03:48;;;;;;;40.93;22.40;;;;;;;-2.00;100.00;100087.50;5057213;28;20212;-83
2023/02/11 03:06:22;;;;;;;39.23;22.53;;;;;;;-1.97;100.00;100082.38;5054872;28;20202;-82
2023/02/11 03:08:55;;;;;;;36.80;21.80;;;;;;;-1.98;100.00;100072.84;5053403;28;20196;-83
2023/02/11 03:11:23;;;;;;;38.70;21.73;;;;;;;-2.03;100.00;100066.75;5053757;28;20247;-84
2023/02/11 03:13:51;;;;;;;36.40;21.73;;;;;;;-2.06;100.00;100058.94;5052827;28;20580;-83
2023/02/11 03:16:20;;;;;;;37.73;21.60;;;;;;;-2.08;100.00;100065.84;5050820;28;20219;-82
2023/02/11 03:18:52;;;;;;;35.27;21.57;;;;;;;-2.09;100.00;100064.09;5053057;28;20304;-83
2023/02/11 03:21:20;;;;;;;36.93;20.40;;;;;;;-2.11;100.00;100069.25;5049398;28;20243;-83
2023/02/11 03:23:52;;;;;;;41.00;23.13;;;;;;;-2.16;100.00;100060.56;5039025;28;20227;-83
2023/02/11 03:26:25;;;;;;;39.83;23.17;;;;;;;-2.14;100.00;100068.34;5038694;28;20215;-83
2023/02/11 03:29:02;;;;;;;36.30;21.77;;;;;;;-2.08;100.00;100071.88;5038567;28;20223;-83
2023/02/11 03:31:34;;;;;;;36.70;22.00;;;;;;;-2.05;100.00;100065.84;5038385;28;20269;-82
2023/02/11 03:34:07;;;;;;;35.37;21.70;;;;;;;-2.05;100.00;100058.06;5038198;28;20222;-83
2023/02/11 03:36:44;;;;;;;35.87;22.03;;;;;;;-2.03;100.00;100069.34;5038150;28;20212;-83
2023/02/11 03:39:14;;;;;;;35.73;21.30;;;;;;;-1.98;100.00;100065.94;5038003;28;20236;-83
2023/02/11 03:41:42;;;;;;;35.57;20.33;;;;;;;-1.90;100.00;100071.22;5038323;28;20233;-82
2023/02/11 03:44:10;;;;;;;39.03;21.20;;;;;;;-1.86;100.00;100067.78;5037967;28;20216;-83
2023/02/11 03:46:40;;;;;;;37.17;21.70;;;;;;;-1.85;100.00;100062.63;5037907;28;20215;-81
2023/02/11 03:49:11;;;;;;;33.90;20.37;;;;;;;-1.79;100.00;100061.84;5037713;28;20209;-82
2023/02/11 03:51:39;;;;;;;35.87;20.73;;;;;;;-1.71;100.00;100062.78;5038170;28;20225;-82
2023/02/11 03:54:10;;;;;;;40.43;22.37;;;;;;;-1.62;100.00;100070.63;5037666;28;20295;-81
2023/02/11 03:56:44;;;;;;;37.77;22.67;;;;;;;-1.51;100.00;100064.69;5033525;28;20223;-82
2023/02/11 03:59:11;;;;;;;37.53;21.77;;;;;;;-1.42;100.00;100071.69;5033963;28;20243;-84
2023/02/11 04:01:37;;;;;;;31.70;19.57;;;;;;;-1.32;100.00;100066.59;5034794;28;20222;-83
2023/02/11 04:04:04;;;;;;;35.70;20.67;;;;;;;-1.26;100.00;100070.94;5034463;28;20227;-83
2023/02/11 04:06:32;;;;;;;31.97;21.53;;;;;;;-1.14;100.00;100071.03;5034687;28;20212;-83
2023/02/11 04:08:59;;;;;;;34.87;21.63;;;;;;;-1.02;100.00;100068.53;5034126;28;20208;-82
2023/02/11 04:11:25;;;;;;;36.33;21.10;;;;;;;-0.97;100.00;100067.75;5033982;28;20702;-83
2023/02/11 04:13:52;;;;;;;35.10;19.33;;;;;;;-0.96;99.76;100071.19;5033733;28;20690;-83
2023/02/11 04:16:18;;;;;;;33.67;20.00;;;;;;;-0.98;99.50;100071.16;5034148;28;20572;-83
2023/02/11 04:18:45;;;;;;;38.10;20.53;;;;;;;-1.04;99.61;100072.88;5033844;28;20212;-83
2023/02/11 04:21:11;;;;;;;33.33;21.10;;;;;;;-1.09;99.60;100075.44;5033435;28;20243;-83
2023/02/11 04:23:39;;;;;;;30.87;20.47;;;;;;;-1.13;99.72;100078.84;5033508;28;20215;-83
2023/02/11 04:26:06;;;;;;;32.80;20.00;;;;;;;-1.12;100.00;100079.72;5033474;28;20556;-83
2023/02/11 04:28:33;;;;;;;39.53;22.73;;;;;;;-1.07;100.00;100078.03;5033742;28;20212;-83
2023/02/11 04:31:00;;;;;;;35.43;21.40;;;;;;;-0.98;100.00;100083.28;5033349;28;20240;-83
2023/02/11 04:33:26;;;;;;;33.27;20.93;;;;;;;-0.90;99.71;100086.81;5033385;28;20216;-83
2023/02/11 04:35:53;;;;;;;34.30;20.13;;;;;;;-0.86;99.65;100089.41;5033407;28;20295;-83
2023/02/11 04:38:19;;;;;;;33.87;21.03;;;;;;;-0.80;99.30;100089.47;5033411;28;20242;-83
2023/02/11 04:40:47;;;;;;;35.57;20.97;;;;;;;-0.74;99.77;100083.47;5032870;28;20236;-83
2023/02/11 04:43:14;;;;;;;35.77;21.27;;;;;;;-0.72;99.26;100071.34;5033445;28;20212;-83
2023/02/11 04:45:40;;;;;;;33.80;21.20;;;;;;;-0.65;98.95;100057.53;5033518;28;20235;-83
2023/02/11 04:48:07;;;;;;;32.57;20.23;;;;;;;-0.62;99.16;100060.16;5033056;28;20216;-83
2023/02/11 04:50:33;;;;;;;35.00;19.90;;;;;;;-0.60;98.31;100063.63;5032947;28;20228;-83
2023/02/11 04:53:00;;;;;;;31.03;20.10;;;;;;;-0.52;97.99;100064.53;5033175;28;20224;-83
2023/02/11 04:55:26;;;;;;;32.37;19.87;;;;;;;-0.48;97.22;100061.09;5033218;28;20932;-83
2023/02/11 04:57:55;;;;;;;33.43;19.77;;;;;;;-0.41;96.87;100057.66;5033256;28;20213;-83
2023/02/11 05:00:21;;;;;;;31.60;19.67;;;;;;;-0.36;96.71;100063.75;5032462;28;20702;-83
2023/02/11 05:02:48;;;;;;;31.87;19.90;;;;;;;-0.41;96.83;100057.66;5033031;28;20212;-83
2023/02/11 05:05:14;;;;;;;36.03;21.10;;;;;;;-0.34;96.86;100062.03;5032962;28;20213;-83
2023/02/11 05:07:41;;;;;;;35.47;21.30;;;;;;;-0.32;96.11;100047.34;5032312;28;20213;-83
2023/02/11 05:10:08;;;;;;;33.80;20.27;;;;;;;-0.31;95.72;100044.72;5042824;23;20535;-77
2023/02/11 05:12:34;;;;;;;34.00;20.53;;;;;;;-0.35;95.53;100039.50;5012742;28;20217;-77
2023/02/11 05:15:02;;;;;;;32.73;21.13;;;;;;;-0.31;95.63;100025.69;5012801;28;20209;-77
2023/02/11 05:17:28;;;;;;;32.33;19.20;;;;;;;-0.31;95.94;100023.09;5012896;28;20214;-77
2023/02/11 05:19:55;;;;;;;33.90;20.43;;;;;;;-0.31;95.96;100010.09;5012393;28;20243;-79
2023/02/11 05:22:21;;;;;;;31.20;20.40;;;;;;;-0.29;95.44;100008.34;5012693;28;20213;-79
2023/02/11 05:24:48;;;;;;;34.33;20.57;;;;;;;-0.28;95.92;100011.81;5012671;28;20213;-79
2023/02/11 05:27:14;;;;;;;30.87;20.83;;;;;;;-0.28;95.88;100008.38;5012816;28;20593;-79
2023/02/11 05:29:41;;;;;;;31.07;19.23;;;;;;;-0.28;95.36;100008.38;5012335;28;20212;-78
2023/02/11 05:32:09;;;;;;;30.97;19.33;;;;;;;-0.24;95.35;100006.66;5012590;28;20211;-78
2023/02/11 05:34:35;;;;;;;30.77;19.50;;;;;;;-0.24;95.73;100004.06;5012524;28;20570;-78
2023/02/11 05:37:02;;;;;;;29.97;19.60;;;;;;;-0.22;95.92;100004.91;5012618;28;20244;-78
2023/02/11 05:39:28;;;;;;;33.27;21.53;;;;;;;-0.22;95.69;100003.19;5012405;28;20235;-78
2023/02/11 05:41:55;;;;;;;32.60;20.47;;;;;;;-0.20;94.79;100005.81;5012301;28;20254;-78
2023/02/11 05:44:22;;;;;;;32.87;20.67;;;;;;;-0.15;94.99;100010.13;5012427;28;20206;-78
2023/02/11 05:46:49;;;;;;;32.87;19.80;;;;;;;-0.17;94.90;100005.81;5012534;28;20216;-78
2023/02/11 05:49:17;;;;;;;33.27;19.00;;;;;;;-0.17;94.64;99999.72;5011960;28;20272;-78
2023/02/11 05:51:44;;;;;;;33.50;19.57;;;;;;;-0.13;95.08;100007.56;5012610;28;20233;-78
2023/02/11 05:54:11;;;;;;;31.63;19.60;;;;;;;-0.13;94.90;100003.22;5012211;28;20218;-77
2023/02/11 05:56:37;;;;;;;30.83;19.10;;;;;;;-0.11;95.21;100012.75;5012170;28;20212;-78
2023/02/11 05:59:04;;;;;;;30.60;19.53;;;;;;;-0.11;94.48;100011.91;5011979;28;20215;-78
2023/02/11 06:01:30;;;;;;;31.00;19.20;;;;;;;-0.10;94.51;100009.28;5012003;28;20692;-78
2023/02/11 06:03:57;;;;;;;33.70;20.03;;;;;;;-0.11;94.99;100017.94;5012181;28;20217;-78
2023/02/11 06:06:25;;;;;;;32.40;20.27;;;;;;;-0.08;94.17;100025.75;5012131;28;20205;-78
2023/02/11 06:08:51;;;;;;;34.87;20.53;;;;;;;-0.04;94.55;100029.25;5011884;28;20224;-78
2023/02/11 06:11:19;;;;;;;32.33;20.03;;;;;;;-0.05;93.86;100033.56;5011817;28;20728;-78
2023/02/11 06:13:45;;;;;;;31.50;19.50;;;;;;;-0.04;94.35;100030.09;5011973;28;20213;-77
2023/02/11 06:16:12;;;;;;;33.07;20.53;;;;;;;-0.02;94.21;100033.56;5012016;28;20209;-78
2023/02/11 06:18:38;;;;;;;32.13;19.17;;;;;;;-0.01;94.47;100024.03;5011055;28;20209;-78
2023/02/11 06:21:07;;;;;;;33.73;19.13;;;;;;;0.01;94.14;100033.56;5011438;28;20243;-77
2023/02/11 06:23:34;;;;;;;28.90;18.47;;;;;;;-0.01;94.50;100024.91;5011800;28;20213;-77
2023/02/11 06:26:02;;;;;;;28.47;19.13;;;;;;;0.06;94.40;100033.56;5011845;28;20279;-78
2023/02/11 06:28:30;;;;;;;32.47;18.87;;;;;;;0.05;94.18;100018.84;5011690;28;20202;-77
2023/02/11 06:30:56;;;;;;;31.87;20.17;;;;;;;0.04;94.17;100023.19;5011524;28;20328;-78
2023/02/11 06:33:23;;;;;;;30.53;18.63;;;;;;;0.01;94.12;100032.72;5012058;28;20217;-77
2023/02/11 06:35:49;;;;;;;28.83;19.93;;;;;;;-0.02;94.21;100023.19;5011933;28;20209;-78
2023/02/11 06:38:16;;;;;;;34.20;20.30;;;;;;;0.07;93.91;100020.59;5011852;28;20213;-78
2023/02/11 06:40:48;;;;;;;27.30;17.87;;;;;;;0.14;93.36;100014.53;5011152;28;20236;-77
2023/02/11 06:43:15;;;;;;;31.97;19.33;;;;;;;0.12;93.40;100013.66;5011731;28;20215;-77
2023/02/11 06:45:42;;;;;;;32.47;20.00;;;;;;;0.12;93.47;100026.66;5011469;28;20205;-78
2023/02/11 06:48:09;;;;;;;28.47;17.90;;;;;;;0.13;92.79;100031.00;5011889;28;20210;-78
2023/02/11 06:50:35;;;;;;;29.70;19.27;;;;;;;0.16;92.96;100035.34;5011388;28;20605;-78
2023/02/11 06:53:02;;;;;;;31.10;20.23;;;;;;;0.24;92.29;100037.09;5011442;28;20217;-78
2023/02/11 06:55:28;;;;;;;30.93;19.23;;;;;;;0.30;93.01;100034.50;5011173;28;20216;-78
2023/02/11 06:57:56;;;;;;;29.53;19.13;;;;;;;0.26;92.58;100040.56;5011124;28;20709;-78
2023/02/11 07:00:23;;;;;;;28.77;18.13;;;;;;;0.29;93.22;100040.56;5010754;28;20230;-78
2023/02/11 07:02:49;;;;;;;30.47;18.93;;;;;;;0.41;92.42;100043.19;5011449;28;20315;-77
2023/02/11 07:05:16;;;;;;;29.47;19.10;;;;;;;0.37;92.78;100038.84;5011504;28;20212;-77
2023/02/11 07:07:42;;;;;;;29.40;19.70;;;;;;;0.38;93.03;100035.38;5011279;28;20684;-77
2023/02/11 07:10:09;;;;;;;29.10;18.87;;;;;;;0.45;91.96;100037.09;5010783;28;20240;-77
2023/02/11 07:12:36;;;;;;;31.97;20.77;;;;;;;0.40;91.63;100044.06;5011034;28;20225;-78
2023/02/11 07:15:04;;;;;;;29.47;17.40;;;;;;;0.37;92.03;100041.44;5011275;28;20209;-77
2023/02/11 07:17:30;;;;;;;29.63;19.37;;;;;;;0.36;92.59;100038.84;5011465;28;20233;-79
2023/02/11 07:19:57;;;;;;;32.17;19.33;;;;;;;0.34;92.13;100046.66;5010974;28;20237;-77
2023/02/11 07:22:23;;;;;;;30.23;18.53;;;;;;;0.34;92.89;100037.97;5011432;28;20233;-77
2023/02/11 07:24:50;;;;;;;33.20;19.83;;;;;;;0.27;92.83;100037.13;5011030;28;20216;-78
2023/02/11 07:27:17;;;;;;;28.27;17.47;;;;;;;0.29;93.24;100030.19;5011195;28;20216;-83
2023/02/11 07:29:44;;;;;;;30.10;19.20;;;;;;;0.35;93.47;100043.19;5012295;28;20214;-79
2023/02/11 07:32:12;;;;;;;30.97;19.50;;;;;;;0.43;93.25;100046.66;5015131;28;20285;-76
2023/02/11 07:34:39;;;;;;;27.23;18.43;;;;;;;0.47;91.87;100051.00;5014645;28;20804;-76
2023/02/11 07:37:05;;;;;;;28.37;18.53;;;;;;;0.48;92.05;100042.34;5014543;28;20213;-76
2023/02/11 07:39:32;;;;;;;29.20;18.50;;;;;;;0.50;91.89;100045.78;5014089;28;20213;-76
2023/02/11 07:41:59;;;;;;;32.20;20.17;;;;;;;0.52;91.78;100049.28;5014586;28;20718;-76
2023/02/11 07:44:25;;;;;;;31.20;19.67;;;;;;;0.65;92.02;100045.81;5014618;28;20543;-77
2023/02/11 07:46:52;;;;;;;31.07;20.07;;;;;;;0.71;92.29;100032.81;5014498;28;20220;-77
2023/02/11 07:49:19;;;;;;;31.30;19.80;;;;;;;0.78;91.88;100042.34;5013983;28;20698;-76
2023/02/11 07:51:47;;;;;;;28.43;19.37;;;;;;;0.82;91.56;100028.47;5014114;28;20236;-77
2023/02/11 07:54:14;;;;;;;32.80;20.67;;;;;;;0.86;91.12;100037.16;5013863;28;20221;-76
2023/02/11 07:56:40;;;;;;;30.43;19.20;;;;;;;0.94;91.33;100022.38;5014210;28;20211;-76
2023/02/11 07:59:07;;;;;;;28.00;18.23;;;;;;;1.01;91.24;100021.50;5013904;28;20217;-76
2023/02/11 08:01:34;;;;;;;31.13;19.03;;;;;;;1.08;91.08;100011.06;5012281;28;20249;-76
2023/02/11 08:04:01;;;;;;;31.48;21.77;;;;;;;1.27;91.08;100012.75;5012718;28;20443;-76
2023/02/11 08:06:32;;;;;;;32.27;20.70;;;;;;;1.37;90.76;100003.19;5013797;28;20235;-75
2023/02/11 08:09:04;;;;;;;28.87;18.10;;;;;;;1.42;89.92;99996.22;5013497;28;20205;-76
2023/02/11 08:11:31;;;;;;;31.57;19.03;;;;;;;1.42;88.95;100002.28;5013722;28;20234;-75
2023/02/11 08:13:57;;;;;;;29.17;18.83;;;;;;;1.45;89.16;100001.41;5013750;28;20205;-76
2023/02/11 08:16:26;;;;;;;28.43;19.10;;;;;;;1.47;89.06;100008.34;5013923;28;20225;-76
2023/02/11 08:18:56;;;;;;;28.93;18.37;;;;;;;1.43;89.52;100017.06;5013343;28;20217;-76
2023/02/11 08:21:22;;;;;;;30.37;19.03;;;;;;;1.47;89.06;100026.59;5013303;28;20242;-76
2023/02/11 08:23:51;;;;;;;30.33;18.83;;;;;;;1.46;88.42;100035.28;5013723;28;20213;-76
2023/02/11 08:26:19;;;;;;;29.90;18.77;;;;;;;1.37;88.38;100030.13;5013520;28;20209;-77
2023/02/11 08:28:47;;;;;;;28.10;17.60;;;;;;;1.29;89.21;100036.22;5013410;28;20697;-76
2023/02/11 08:31:16;;;;;;;27.43;17.37;;;;;;;1.21;89.75;100044.03;5013422;28;20231;-76
2023/02/11 08:33:43;;;;;;;30.17;19.43;;;;;;;1.20;90.13;100047.50;5013274;28;20226;-76
2023/02/11 08:36:10;;;;;;;29.67;19.10;;;;;;;1.17;91.99;100044.91;5013223;28;20672;-76
2023/02/11 08:38:37;;;;;;;29.60;18.60;;;;;;;1.14;92.33;100041.44;5013450;28;20210;-76
2023/02/11 08:41:05;;;;;;;33.03;19.77;;;;;;;1.17;92.77;100037.09;5012139;28;20234;-76
2023/02/11 08:43:32;;;;;;;28.73;18.77;;;;;;;1.22;92.32;100032.75;5013355;28;20232;-76
2023/02/11 08:45:59;;;;;;;31.50;19.27;;;;;;;1.28;91.85;100034.47;5013484;28;20209;-76
2023/02/11 08:48:27;;;;;;;32.97;20.13;;;;;;;1.40;91.56;100024.88;5013111;28;20240;-76
2023/02/11 08:50:53;;;;;;;29.23;19.67;;;;;;;1.57;91.12;100017.00;5012915;28;20230;-76
2023/02/11 08:53:20;;;;;;;30.43;19.37;;;;;;;1.68;90.23;100013.50;5012906;28;20706;-76
2023/02/11 08:55:50;;;;;;;26.93;18.90;;;;;;;1.70;89.99;100014.34;5012914;28;20308;-77
2023/02/11 08:58:19;;;;;;;30.87;19.10;;;;;;;1.73;89.62;100005.66;5013026;28;20220;-76
2023/02/11 09:00:46;;;;;;;31.17;19.53;;;;;;;1.74;89.66;100026.50;5012745;28;20237;-75
2023/02/11 09:03:12;;;;;;;35.33;21.23;;;;;;;1.78;89.67;100028.19;5012778;28;20697;-76
2023/02/11 09:05:41;;;;;;;33.23;19.67;;;;;;;1.84;89.43;100036.00;5012925;28;20213;-76
2023/02/11 09:08:08;;;;;;;28.57;18.77;;;;;;;1.96;89.67;100033.34;5012813;28;20676;-76
2023/02/11 09:10:34;;;;;;;27.93;18.83;;;;;;;2.05;89.64;100048.06;5012440;28;20263;-75
2023/02/11 09:13:01;;;;;;;26.43;17.03;;;;;;;2.15;89.32;100034.97;5012640;28;20202;-76
2023/02/11 09:15:29;;;;;;;28.73;18.87;;;;;;;2.44;89.61;100029.59;5012781;28;20217;-76
2023/02/11 09:17:55;;;;;;;30.23;18.77;;;;;;;2.53;88.33;100021.69;5012465;28;20872;-76
2023/02/11 09:20:22;;;;;;;27.53;18.37;;;;;;;2.58;88.05;100015.53;5012316;28;20252;-75
2023/02/11 09:22:49;;;;;;;28.47;18.73;;;;;;;2.57;87.39;100003.38;5012433;28;20241;-75
2023/02/11 09:25:15;;;;;;;28.30;18.77;;;;;;;2.65;86.80;100005.94;5012363;28;20213;-75
2023/02/11 09:27:42;;;;;;;25.97;18.23;;;;;;;2.73;85.98;99997.16;5012396;28;20214;-75
2023/02/11 09:30:09;;;;;;;26.97;18.07;;;;;;;2.74;85.52;99985.81;5011843;28;20234;-75
2023/02/11 09:32:37;;;;;;;26.50;18.10;;;;;;;2.79;84.93;99983.16;5012520;28;20203;-75
2023/02/11 09:35:04;;;;;;;25.83;17.90;;;;;;;2.92;84.21;99982.16;5012192;28;20671;-74
2023/02/11 09:37:31;;;;;;;28.83;18.10;;;;;;;3.09;83.26;99981.13;5012412;28;20236;-74
2023/02/11 09:39:58;;;;;;;31.10;19.10;;;;;;;3.13;84.10;99988.03;5011762;28;20268;-74
2023/02/11 09:42:50;;;;;;;28.90;18.80;;;;;;;3.20;83.91;99997.56;5013323;28;20703;-76
2023/02/11 09:45:20;;;;;;;28.60;19.23;;;;;;;3.29;83.38;99991.34;5002821;28;20214;-76
2023/02/11 09:47:54;;;;;;;26.97;18.47;;;;;;;3.36;83.59;99993.91;5013471;28;20206;-76
2023/02/11 09:50:26;;;;;;;26.17;18.07;;;;;;;3.38;83.77;100007.84;5012602;28;20234;-76
2023/02/11 09:52:58;;;;;;;28.67;19.60;;;;;;;3.48;82.40;100006.81;5011137;28;20211;-77
2023/02/11 09:55:29;;;;;;;28.13;17.90;;;;;;;3.50;81.36;100012.03;5012082;28;20211;-76
2023/02/11 09:57:57;;;;;;;26.63;17.70;;;;;;;3.57;81.86;100011.09;5012089;28;20235;-76
2023/02/11 10:00:28;;;;;;;30.33;19.40;;;;;;;3.60;81.11;100011.06;5011561;28;20237;-76
2023/02/11 10:03:31;;;;;;;24.03;17.23;;;;;;;3.54;80.87;100011.97;5011975;28;20233;-76
2023/02/11 10:06:20;;;;;;;27.20;18.50;;;;;;;3.63;80.28;100019.75;5009038;28;20689;-76
2023/02/11 10:08:58;;;;;;;28.67;17.63;;;;;;;3.66;81.60;100024.06;5011892;28;20214;-77
2023/02/11 10:11:34;;;;;;;25.17;16.57;;;;;;;3.81;80.65;100023.88;5011927;28;20241;-77
2023/02/11 10:14:12;;;;;;;26.60;16.97;;;;;;;3.82;81.01;100015.13;5011653;28;20589;-76
2023/02/11 10:16:52;;;;;;;23.63;15.70;;;;;;;3.67;81.26;100016.19;5011734;28;20216;-76
2023/02/11 10:19:35;;;;;;;22.57;16.67;;;;;;;3.70;82.13;100033.59;5011651;28;20214;-77
2023/02/11 10:22:10;;;;;;;23.10;15.70;;;;;;;3.80;82.18;100028.22;5011542;28;20799;-77
2023/02/11 10:24:37;;;;;;;24.47;16.07;;;;;;;3.98;82.52;100029.75;5011661;28;20293;-76
2023/02/11 10:27:14;;;;;;;26.97;18.10;;;;;;;4.33;82.60;100038.84;5011654;28;20206;-76
2023/02/11 10:29:47;;;;;;;23.90;16.83;;;;;;;4.45;82.11;100030.81;5011129;28;20207;-76
2023/02/11 10:32:26;;;;;;;22.23;14.93;;;;;;;4.66;82.08;100020.03;5011924;28;20576;-76
2023/02/11 10:34:58;;;;;;;22.53;15.70;;;;;;;4.58;80.25;100006.19;5011302;28;20220;-76
2023/02/11 10:37:26;;;;;;;22.17;15.63;;;;;;;4.58;78.90;100007.94;5011371;28;20692;-76
2023/02/11 10:39:52;;;;;;;22.37;14.97;;;;;;;4.58;79.00;100016.66;5010894;28;20236;-76
2023/02/11 10:42:19;;;;;;;20.87;15.20;;;;;;;4.76;78.04;100005.88;5011178;28;20709;-76
2023/02/11 10:44:57;;;;;;;19.67;12.83;;;;;;;4.97;77.00;99989.81;5011274;28;20561;-76
2023/02/11 10:47:28;;;;;;;9.50;6.63;;;;;;;5.26;76.94;99992.75;5011164;28;20205;-76
2023/02/11 10:49:56;;;;;;;9.37;6.17;;;;;;;5.49;76.74;99984.47;5010968;28;20228;-76
2023/02/11 10:52:29;;;;;;;8.33;5.87;;;;;;;5.55;75.47;99974.69;5011318;28;20211;-77
2023/02/11 10:55:01;;;;;;;10.70;6.43;;;;;;;5.66;75.69;99972.72;5011114;28;20668;-76
2023/02/11 10:57:32;;;;;;;8.97;6.50;;;;;;;5.75;75.22;99951.53;5011235;28;20212;-76
2023/02/11 11:00:02;;;;;;;11.20;6.77;;;;;;;5.78;74.54;99951.50;5010760;28;20270;-76
2023/02/11 11:02:33;;;;;;;9.07;6.47;;;;;;;5.89;74.17;99944.28;5011126;28;20233;-76
2023/02/11 11:05:01;;;;;;;7.73;6.17;;;;;;;5.85;74.69;99941.75;5012890;28;20222;-77
2023/02/11 11:07:31;;;;;;;11.17;6.20;;;;;;;5.79;75.27;99942.72;5015157;28;20216;-76
2023/02/11 11:12:35;;;;;;;8.87;7.13;;;;;;;6.04;74.12;99943.94;5032207;28;20227;-84
2023/02/11 11:15:17;;;;;;;8.77;6.33;;;;;;;6.19;73.09;99937.47;5036557;28;20223;-85
2023/02/11 11:17:44;;;;;;;9.37;6.57;;;;;;;6.35;73.02;99939.69;5036338;28;20214;-84
2023/02/11 11:20:19;;;;;;;10.23;6.67;;;;;;;6.37;72.71;99932.66;5034778;28;20595;-83
2023/02/11 11:22:48;;;;;;;9.87;6.80;;;;;;;6.47;72.63;99936.78;5035397;28;20239;-85
2023/02/11 11:25:24;;;;;;;8.03;6.63;;;;;;;6.56;71.79;99947.06;5036294;28;20215;-82
2023/02/11 11:27:52;;;;;;;10.63;6.83;;;;;;;6.63;72.31;99940.75;5036462;28;20208;-83